KOLY/OLY METAR and TAF weather

Enter ICAO airport designator
Station Type Date Time Source
KOLY METAR 2019/06/16 20:35 UTC NOAA

KOLY 162035Z AUTO 03005KT 10SM TS SCT037 BKN048 OVC080 22/22 A2982 RMK AO2 LTG DSNT NE THRU S T02180218


Station Type Date Time Source
KOLY Decoded METAR 2019/06/16 20:35 UTC NOAA

Olney-Noble, Olney-Noble Airport, IL, United States (KOLY) 38-43-19N 088-10-35W
Jun 16, 2019 - 04:35 PM EDT / 2019.06.16 2035 UTC
Wind: from the NNE (030 degrees) at 6 MPH (5 KT):0
Visibility: 10 mile(s):0
Sky conditions: overcast
Weather: thunder; Lightning observed
Temperature: 71.2 F (21.8 C)
Dew Point: 71.2 F (21.8 C)
Relative Humidity: 100%
Pressure (altimeter): 29.82 in. Hg (1009 hPa)
ob: KOLY 162035Z AUTO 03005KT 10SM TS SCT037 BKN048 OVC080 22/22 A2982 RMK AO2 LTG DSNT NE THRU S T02180218
cycle: 20

Station Type Date Time Source
KOLY TAF UTC NOAA

Error!

Example: see airport list